sensor_id;sensor_type;location;lat;lon;timestamp;temperature;humidity
6146;DHT22;3104;50.348;7.620;2023-04-01T00:01:25;10.60;99.90
6146;DHT22;3104;50.348;7.620;2023-04-01T00:03:51;10.50;99.90
6146;DHT22;3104;50.348;7.620;2023-04-01T00:06:18;10.50;99.90
6146;DHT22;3104;50.348;7.620;2023-04-01T00:08:44;10.50;99.90
6146;DHT22;3104;50.348;7.620;2023-04-01T00:11:10;10.50;99.90
6146;DHT22;3104;50.348;7.620;2023-04-01T00:13:35;10.60;99.90
6146;DHT22;3104;50.348;7.620;2023-04-01T00:16:01;10.60;99.90
6146;DHT22;3104;50.348;7.620;2023-04-01T00:18:28;10.60;99.90
6146;DHT22;3104;50.348;7.620;2023-04-01T00:20:54;10.60;99.90
6146;DHT22;3104;50.348;7.620;2023-04-01T00:23:20;10.50;99.90
6146;DHT22;3104;50.348;7.620;2023-04-01T00:25:46;10.40;99.90
6146;DHT22;3104;50.348;7.620;2023-04-01T00:28:14;10.40;99.90
6146;DHT22;3104;50.348;7.620;2023-04-01T00:30:40;10.50;99.90
6146;DHT22;3104;50.348;7.620;2023-04-01T00:33:06;10.40;99.90
6146;DHT22;3104;50.348;7.620;2023-04-01T00:35:32;10.40;99.90
6146;DHT22;3104;50.348;7.620;2023-04-01T00:37:58;10.40;99.90
6146;DHT22;3104;50.348;7.620;2023-04-01T00:40:33;10.40;99.90
6146;DHT22;3104;50.348;7.620;2023-04-01T00:43:00;10.50;99.90
6146;DHT22;3104;50.348;7.620;2023-04-01T00:47:59;10.50;99.90
6146;DHT22;3104;50.348;7.620;2023-04-01T00:50:26;10.50;99.90
6146;DHT22;3104;50.348;7.620;2023-04-01T00:52:53;10.50;99.90
6146;DHT22;3104;50.348;7.620;2023-04-01T00:55:20;10.50;99.90
6146;DHT22;3104;50.348;7.620;2023-04-01T00:57:48;10.50;99.90
6146;DHT22;3104;50.348;7.620;2023-04-01T01:00:16;10.50;99.90
6146;DHT22;3104;50.348;7.620;2023-04-01T01:02:44;10.40;99.90
6146;DHT22;3104;50.348;7.620;2023-04-01T01:05:17;10.50;99.90
6146;DHT22;3104;50.348;7.620;2023-04-01T01:07:54;10.50;99.90
6146;DHT22;3104;50.348;7.620;2023-04-01T01:10:30;10.50;99.90
6146;DHT22;3104;50.348;7.620;2023-04-01T01:19:09;10.50;99.90
6146;DHT22;3104;50.348;7.620;2023-04-01T01:24:44;10.40;99.90
6146;DHT22;3104;50.348;7.620;2023-04-01T01:27:18;10.40;99.90
6146;DHT22;3104;50.348;7.620;2023-04-01T01:35:35;10.30;99.90
6146;DHT22;3104;50.348;7.620;2023-04-01T01:38:11;10.30;99.90
6146;DHT22;3104;50.348;7.620;2023-04-01T01:40:41;10.30;99.90
6146;DHT22;3104;50.348;7.620;2023-04-01T01:43:11;10.30;99.90
6146;DHT22;3104;50.348;7.620;2023-04-01T01:45:43;10.30;99.90
6146;DHT22;3104;50.348;7.620;2023-04-01T01:48:11;10.30;99.90
6146;DHT22;3104;50.348;7.620;2023-04-01T01:50:38;10.30;99.90
6146;DHT22;3104;50.348;7.620;2023-04-01T01:53:09;10.30;99.90
6146;DHT22;3104;50.348;7.620;2023-04-01T01:55:37;10.30;99.90
6146;DHT22;3104;50.348;7.620;2023-04-01T01:58:17;10.30;99.90
6146;DHT22;3104;50.348;7.620;2023-04-01T02:00:48;10.30;99.90
6146;DHT22;3104;50.348;7.620;2023-04-01T02:03:15;10.40;99.90
6146;DHT22;3104;50.348;7.620;2023-04-01T02:05:42;10.30;99.90
6146;DHT22;3104;50.348;7.620;2023-04-01T02:08:15;10.30;99.90
6146;DHT22;3104;50.348;7.620;2023-04-01T02:10:47;10.30;99.90
6146;DHT22;3104;50.348;7.620;2023-04-01T02:13:29;10.40;99.90
6146;DHT22;3104;50.348;7.620;2023-04-01T02:16:00;10.30;99.90
6146;DHT22;3104;50.348;7.620;2023-04-01T02:18:28;10.30;99.90
6146;DHT22;3104;50.348;7.620;2023-04-01T02:20:54;10.30;99.90
6146;DHT22;3104;50.348;7.620;2023-04-01T02:23:22;10.20;99.90
6146;DHT22;3104;50.348;7.620;2023-04-01T02:25:47;10.30;99.90
6146;DHT22;3104;50.348;7.620;2023-04-01T02:28:13;10.30;99.90
6146;DHT22;3104;50.348;7.620;2023-04-01T02:30:42;10.30;99.90
6146;DHT22;3104;50.348;7.620;2023-04-01T02:33:09;10.30;99.90
6146;DHT22;3104;50.348;7.620;2023-04-01T02:35:36;10.40;99.90
6146;DHT22;3104;50.348;7.620;2023-04-01T02:38:03;10.30;99.90
6146;DHT22;3104;50.348;7.620;2023-04-01T02:40:29;10.30;99.90
6146;DHT22;3104;50.348;7.620;2023-04-01T02:42:54;10.30;99.90
6146;DHT22;3104;50.348;7.620;2023-04-01T02:45:20;10.20;99.90
6146;DHT22;3104;50.348;7.620;2023-04-01T02:47:46;10.30;99.90
6146;DHT22;3104;50.348;7.620;2023-04-01T02:50:11;10.30;99.90
6146;DHT22;3104;50.348;7.620;2023-04-01T02:52:37;10.30;99.90
6146;DHT22;3104;50.348;7.620;2023-04-01T02:55:03;10.30;99.90
6146;DHT22;3104;50.348;7.620;2023-04-01T02:57:29;10.30;99.90
6146;DHT22;3104;50.348;7.620;2023-04-01T02:59:55;10.20;99.90
6146;DHT22;3104;50.348;7.620;2023-04-01T03:02:21;10.20;99.90
6146;DHT22;3104;50.348;7.620;2023-04-01T03:04:46;10.20;99.90
6146;DHT22;3104;50.348;7.620;2023-04-01T03:07:12;10.10;99.90
6146;DHT22;3104;50.348;7.620;2023-04-01T03:09:38;10.10;99.90
6146;DHT22;3104;50.348;7.620;2023-04-01T03:12:04;10.10;99.90
6146;DHT22;3104;50.348;7.620;2023-04-01T03:14:30;10.10;99.90
6146;DHT22;3104;50.348;7.620;2023-04-01T03:16:55;10.10;99.90
6146;DHT22;3104;50.348;7.620;2023-04-01T03:19:21;10.20;99.90
6146;DHT22;3104;50.348;7.620;2023-04-01T03:21:47;10.20;99.90
6146;DHT22;3104;50.348;7.620;2023-04-01T03:24:12;10.10;99.90
6146;DHT22;3104;50.348;7.620;2023-04-01T03:26:38;10.20;99.90
6146;DHT22;3104;50.348;7.620;2023-04-01T03:29:03;10.30;99.90
6146;DHT22;3104;50.348;7.620;2023-04-01T03:31:29;10.10;99.90
6146;DHT22;3104;50.348;7.620;2023-04-01T03:33:54;10.10;99.90
6146;DHT22;3104;50.348;7.620;2023-04-01T03:36:20;10.10;99.90
6146;DHT22;3104;50.348;7.620;2023-04-01T03:38:46;10.10;99.90
6146;DHT22;3104;50.348;7.620;2023-04-01T03:41:13;10.10;99.90
6146;DHT22;3104;50.348;7.620;2023-04-01T03:43:39;10.20;99.90
6146;DHT22;3104;50.348;7.620;2023-04-01T03:46:05;10.10;99.90
6146;DHT22;3104;50.348;7.620;2023-04-01T03:48:30;10.10;99.90
6146;DHT22;3104;50.348;7.620;2023-04-01T03:50:56;10.10;99.90
6146;DHT22;3104;50.348;7.620;2023-04-01T03:53:21;10.10;99.90
6146;DHT22;3104;50.348;7.620;2023-04-01T03:55:47;10.20;99.90
6146;DHT22;3104;50.348;7.620;2023-04-01T03:58:13;10.10;99.90
6146;DHT22;3104;50.348;7.620;2023-04-01T04:00:39;10.10;99.90
6146;DHT22;3104;50.348;7.620;2023-04-01T04:03:06;10.10;99.90
6146;DHT22;3104;50.348;7.620;2023-04-01T04:05:31;10.00;99.90
6146;DHT22;3104;50.348;7.620;2023-04-01T04:07:57;10.10;99.90
6146;DHT22;3104;50.348;7.620;2023-04-01T04:10:23;10.00;99.90
6146;DHT22;3104;50.348;7.620;2023-04-01T04:12:50;10.10;99.90
6146;DHT22;3104;50.348;7.620;2023-04-01T04:15:16;10.00;99.90
6146;DHT22;3104;50.348;7.620;2023-04-01T04:17:42;10.10;99.90
6146;DHT22;3104;50.348;7.620;2023-04-01T04:20:09;10.10;99.90
6146;DHT22;3104;50.348;7.620;2023-04-01T04:22:34;10.10;99.90
6146;DHT22;3104;50.348;7.620;2023-04-01T04:25:00;10.00;99.90
6146;DHT22;3104;50.348;7.620;2023-04-01T04:27:25;10.00;99.90
6146;DHT22;3104;50.348;7.620;2023-04-01T04:29:51;10.00;99.90
6146;DHT22;3104;50.348;7.620;2023-04-01T04:32:16;10.00;99.90
6146;DHT22;3104;50.348;7.620;2023-04-01T04:34:42;10.00;99.90
6146;DHT22;3104;50.348;7.620;2023-04-01T04:37:08;10.00;99.90
6146;DHT22;3104;50.348;7.620;2023-04-01T04:39:33;9.90;99.90
6146;DHT22;3104;50.348;7.620;2023-04-01T04:41:59;9.90;99.90
6146;DHT22;3104;50.348;7.620;2023-04-01T04:44:24;10.00;99.90
6146;DHT22;3104;50.348;7.620;2023-04-01T04:46:50;10.00;99.90
6146;DHT22;3104;50.348;7.620;2023-04-01T04:49:15;10.00;99.90
6146;DHT22;3104;50.348;7.620;2023-04-01T04:51:41;10.00;99.90
6146;DHT22;3104;50.348;7.620;2023-04-01T04:54:07;10.00;99.90
6146;DHT22;3104;50.348;7.620;2023-04-01T04:56:33;10.00;99.90
6146;DHT22;3104;50.348;7.620;2023-04-01T04:58:59;10.00;99.90
6146;DHT22;3104;50.348;7.620;2023-04-01T05:01:25;10.00;99.90
6146;DHT22;3104;50.348;7.620;2023-04-01T05:03:50;10.00;99.90
6146;DHT22;3104;50.348;7.620;2023-04-01T05:06:17;10.00;99.90
6146;DHT22;3104;50.348;7.620;2023-04-01T05:08:44;10.00;99.90
6146;DHT22;3104;50.348;7.620;2023-04-01T05:11:12;10.00;99.90
6146;DHT22;3104;50.348;7.620;2023-04-01T05:13:38;10.00;99.90
6146;DHT22;3104;50.348;7.620;2023-04-01T05:16:08;9.90;99.90
6146;DHT22;3104;50.348;7.620;2023-04-01T05:18:34;9.90;99.90
6146;DHT22;3104;50.348;7.620;2023-04-01T05:21:00;9.90;99.90
6146;DHT22;3104;50.348;7.620;2023-04-01T05:23:25;9.90;99.90
6146;DHT22;3104;50.348;7.620;2023-04-01T05:25:51;9.90;99.90
6146;DHT22;3104;50.348;7.620;2023-04-01T05:28:19;9.90;99.90
6146;DHT22;3104;50.348;7.620;2023-04-01T05:30:45;9.90;99.90
6146;DHT22;3104;50.348;7.620;2023-04-01T05:33:12;9.90;99.90
6146;DHT22;3104;50.348;7.620;2023-04-01T05:35:39;9.90;99.90
6146;DHT22;3104;50.348;7.620;2023-04-01T05:38:05;10.00;99.90
6146;DHT22;3104;50.348;7.620;2023-04-01T05:40:31;10.00;99.90
6146;DHT22;3104;50.348;7.620;2023-04-01T05:42:57;9.90;99.90
6146;DHT22;3104;50.348;7.620;2023-04-01T05:45:23;10.00;99.90
6146;DHT22;3104;50.348;7.620;2023-04-01T05:47:48;9.90;99.90
6146;DHT22;3104;50.348;7.620;2023-04-01T05:50:14;9.90;99.90
6146;DHT22;3104;50.348;7.620;2023-04-01T05:52:40;10.00;99.90
6146;DHT22;3104;50.348;7.620;2023-04-01T05:55:06;10.00;99.90
6146;DHT22;3104;50.348;7.620;2023-04-01T05:57:32;10.00;99.90
6146;DHT22;3104;50.348;7.620;2023-04-01T05:59:57;9.90;99.90
6146;DHT22;3104;50.348;7.620;2023-04-01T06:02:23;9.90;99.90
6146;DHT22;3104;50.348;7.620;2023-04-01T06:04:49;10.00;99.90
6146;DHT22;3104;50.348;7.620;2023-04-01T06:07:16;10.00;99.90
6146;DHT22;3104;50.348;7.620;2023-04-01T06:09:43;10.00;99.90
6146;DHT22;3104;50.348;7.620;2023-04-01T06:20:43;10.10;99.90
6146;DHT22;3104;50.348;7.620;2023-04-01T06:23:28;10.00;99.90
6146;DHT22;3104;50.348;7.620;2023-04-01T06:36:23;10.20;99.90
6146;DHT22;3104;50.348;7.620;2023-04-01T06:44:53;10.10;99.90
6146;DHT22;3104;50.348;7.620;2023-04-01T06:47:46;10.10;99.90
6146;DHT22;3104;50.348;7.620;2023-04-01T06:55:47;10.20;99.90
6146;DHT22;3104;50.348;7.620;2023-04-01T06:58:23;10.20;99.90
6146;DHT22;3104;50.348;7.620;2023-04-01T07:00:52;10.30;99.90
6146;DHT22;3104;50.348;7.620;2023-04-01T07:03:39;10.20;99.90
6146;DHT22;3104;50.348;7.620;2023-04-01T07:06:14;10.30;99.90
6146;DHT22;3104;50.348;7.620;2023-04-01T07:08:43;10.30;99.90
6146;DHT22;3104;50.348;7.620;2023-04-01T07:11:11;10.30;99.90
6146;DHT22;3104;50.348;7.620;2023-04-01T07:13:53;10.20;99.90
6146;DHT22;3104;50.348;7.620;2023-04-01T07:18:58;10.30;99.90
6146;DHT22;3104;50.348;7.620;2023-04-01T07:21:47;10.30;99.90
6146;DHT22;3104;50.348;7.620;2023-04-01T07:24:46;10.40;99.90
6146;DHT22;3104;50.348;7.620;2023-04-01T07:27:13;10.40;99.90
6146;DHT22;3104;50.348;7.620;2023-04-01T07:29:39;10.50;99.90
6146;DHT22;3104;50.348;7.620;2023-04-01T07:32:34;10.50;99.90
6146;DHT22;3104;50.348;7.620;2023-04-01T07:40:37;10.40;99.90
6146;DHT22;3104;50.348;7.620;2023-04-01T07:43:14;10.40;99.90
6146;DHT22;3104;50.348;7.620;2023-04-01T07:48:30;10.40;99.90
6146;DHT22;3104;50.348;7.620;2023-04-01T07:51:33;10.50;99.90
6146;DHT22;3104;50.348;7.620;2023-04-01T07:54:04;10.50;99.90
6146;DHT22;3104;50.348;7.620;2023-04-01T07:56:49;10.50;99.90
6146;DHT22;3104;50.348;7.620;2023-04-01T07:59:30;10.50;99.90
6146;DHT22;3104;50.348;7.620;2023-04-01T08:05:04;10.50;99.90
6146;DHT22;3104;50.348;7.620;2023-04-01T08:10:39;10.60;99.90
6146;DHT22;3104;50.348;7.620;2023-04-01T08:16:08;10.70;99.90
6146;DHT22;3104;50.348;7.620;2023-04-01T08:23:44;10.70;99.90
6146;DHT22;3104;50.348;7.620;2023-04-01T08:26:37;10.70;99.90
6146;DHT22;3104;50.348;7.620;2023-04-01T08:34:31;11.00;99.90
6146;DHT22;3104;50.348;7.620;2023-04-01T08:37:05;11.10;99.90
6146;DHT22;3104;50.348;7.620;2023-04-01T08:39:44;11.00;99.90
6146;DHT22;3104;50.348;7.620;2023-04-01T08:42:21;11.00;99.90
6146;DHT22;3104;50.348;7.620;2023-04-01T08:47:54;11.10;99.90
6146;DHT22;3104;50.348;7.620;2023-04-01T08:50:36;10.80;99.90
6146;DHT22;3104;50.348;7.620;2023-04-01T09:02:11;10.80;99.90
6146;DHT22;3104;50.348;7.620;2023-04-01T09:07:46;10.80;99.90
6146;DHT22;3104;50.348;7.620;2023-04-01T09:19:10;10.90;99.90
6146;DHT22;3104;50.348;7.620;2023-04-01T09:22:01;10.90;99.90
6146;DHT22;3104;50.348;7.620;2023-04-01T09:27:29;10.90;99.90
6146;DHT22;3104;50.348;7.620;2023-04-01T09:33:00;11.00;99.90
6146;DHT22;3104;50.348;7.620;2023-04-01T09:35:47;10.90;99.90
6146;DHT22;3104;50.348;7.620;2023-04-01T09:44:11;10.90;99.90
6146;DHT22;3104;50.348;7.620;2023-04-01T09:47:01;11.10;99.90
6146;DHT22;3104;50.348;7.620;2023-04-01T09:52:25;11.20;99.90
6146;DHT22;3104;50.348;7.620;2023-04-01T10:03:58;11.20;99.90
6146;DHT22;3104;50.348;7.620;2023-04-01T10:20:45;11.10;99.90
6146;DHT22;3104;50.348;7.620;2023-04-01T10:29:27;11.10;99.90
6146;DHT22;3104;50.348;7.620;2023-04-01T10:39:07;11.10;99.90
6146;DHT22;3104;50.348;7.620;2023-04-01T10:41:10;11.10;99.90
6146;DHT22;3104;50.348;7.620;2023-04-01T10:44:45;11.20;99.90
6146;DHT22;3104;50.348;7.620;2023-04-01T10:55:36;11.00;99.90
6146;DHT22;3104;50.348;7.620;2023-04-01T10:58:17;11.00;99.90
6146;DHT22;3104;50.348;7.620;2023-04-01T11:03:56;11.10;99.90
6146;DHT22;3104;50.348;7.620;2023-04-01T11:18:13;11.40;99.90
6146;DHT22;3104;50.348;7.620;2023-04-01T11:32:50;11.50;99.90
6146;DHT22;3104;50.348;7.620;2023-04-01T11:43:32;11.60;99.90
6146;DHT22;3104;50.348;7.620;2023-04-01T12:00:44;11.80;99.90
6146;DHT22;3104;50.348;7.620;2023-04-01T12:08:41;12.00;99.90
6146;DHT22;3104;50.348;7.620;2023-04-01T12:14:14;12.20;99.90
6146;DHT22;3104;50.348;7.620;2023-04-01T12:22:56;12.20;99.90
6146;DHT22;3104;50.348;7.620;2023-04-01T12:25:59;12.20;99.90
6146;DHT22;3104;50.348;7.620;2023-04-01T12:34:49;12.20;99.90
6146;DHT22;3104;50.348;7.620;2023-04-01T12:52:11;12.00;99.90
6146;DHT22;3104;50.348;7.620;2023-04-01T13:05:24;12.00;99.90
6146;DHT22;3104;50.348;7.620;2023-04-01T13:08:10;12.00;99.90
6146;DHT22;3104;50.348;7.620;2023-04-01T13:15:52;12.00;99.90
6146;DHT22;3104;50.348;7.620;2023-04-01T13:21:34;12.10;99.90
6146;DHT22;3104;50.348;7.620;2023-04-01T13:27:37;12.20;99.90
6146;DHT22;3104;50.348;7.620;2023-04-01T13:38:49;12.30;99.90
6146;DHT22;3104;50.348;7.620;2023-04-01T13:47:23;12.90;99.90
6146;DHT22;3104;50.348;7.620;2023-04-01T13:55:46;13.40;99.90
6146;DHT22;3104;50.348;7.620;2023-04-01T14:04:11;12.90;99.90
6146;DHT22;3104;50.348;7.620;2023-04-01T14:09:52;13.00;99.90
6146;DHT22;3104;50.348;7.620;2023-04-01T14:20:20;12.70;99.90
6146;DHT22;3104;50.348;7.620;2023-04-01T14:23:07;12.60;99.90
6146;DHT22;3104;50.348;7.620;2023-04-01T14:26:12;12.80;99.90
6146;DHT22;3104;50.348;7.620;2023-04-01T14:28:54;12.70;99.90
6146;DHT22;3104;50.348;7.620;2023-04-01T14:31:58;12.70;99.90
6146;DHT22;3104;50.348;7.620;2023-04-01T14:34:49;12.70;99.90
6146;DHT22;3104;50.348;7.620;2023-04-01T14:37:30;12.80;99.90
6146;DHT22;3104;50.348;7.620;2023-04-01T14:51:28;13.10;99.90
6146;DHT22;3104;50.348;7.620;2023-04-01T14:54:15;13.20;99.90
6146;DHT22;3104;50.348;7.620;2023-04-01T14:56:49;13.30;99.90
6146;DHT22;3104;50.348;7.620;2023-04-01T15:04:43;13.40;99.90
6146;DHT22;3104;50.348;7.620;2023-04-01T15:07:40;13.30;99.90
6146;DHT22;3104;50.348;7.620;2023-04-01T15:18:12;12.90;99.90
6146;DHT22;3104;50.348;7.620;2023-04-01T15:20:53;12.80;99.90
6146;DHT22;3104;50.348;7.620;2023-04-01T15:23:40;12.80;99.90
6146;DHT22;3104;50.348;7.620;2023-04-01T15:26:42;12.80;99.90
6146;DHT22;3104;50.348;7.620;2023-04-01T15:32:15;12.70;99.90
6146;DHT22;3104;50.348;7.620;2023-04-01T15:37:41;12.60;99.90
6146;DHT22;3104;50.348;7.620;2023-04-01T15:40:32;12.60;99.90
6146;DHT22;3104;50.348;7.620;2023-04-01T15:43:07;12.50;99.90
6146;DHT22;3104;50.348;7.620;2023-04-01T15:45:48;12.50;99.90
6146;DHT22;3104;50.348;7.620;2023-04-01T15:48:28;12.50;99.90
6146;DHT22;3104;50.348;7.620;2023-04-01T15:51:16;12.50;99.90
6146;DHT22;3104;50.348;7.620;2023-04-01T15:56:32;12.50;99.90
6146;DHT22;3104;50.348;7.620;2023-04-01T15:59:31;12.50;99.90
6146;DHT22;3104;50.348;7.620;2023-04-01T16:04:56;12.40;99.90
6146;DHT22;3104;50.348;7.620;2023-04-01T16:07:43;12.50;99.90
6146;DHT22;3104;50.348;7.620;2023-04-01T16:15:59;12.50;99.90
6146;DHT22;3104;50.348;7.620;2023-04-01T16:18:31;12.50;99.90
6146;DHT22;3104;50.348;7.620;2023-04-01T16:21:14;12.50;99.90
6146;DHT22;3104;50.348;7.620;2023-04-01T16:23:59;12.40;99.90
6146;DHT22;3104;50.348;7.620;2023-04-01T16:27:18;12.40;99.90
6146;DHT22;3104;50.348;7.620;2023-04-01T16:29:43;12.50;99.90
6146;DHT22;3104;50.348;7.620;2023-04-01T16:34:54;12.50;99.90
6146;DHT22;3104;50.348;7.620;2023-04-01T16:37:48;12.60;99.90
6146;DHT22;3104;50.348;7.620;2023-04-01T16:40:37;12.50;99.90
6146;DHT22;3104;50.348;7.620;2023-04-01T16:45:42;12.40;99.90
6146;DHT22;3104;50.348;7.620;2023-04-01T16:48:12;12.30;99.90
6146;DHT22;3104;50.348;7.620;2023-04-01T16:51:00;12.30;99.90
6146;DHT22;3104;50.348;7.620;2023-04-01T16:58:41;12.30;99.90
6146;DHT22;3104;50.348;7.620;2023-04-01T17:01:18;12.30;99.90
6146;DHT22;3104;50.348;7.620;2023-04-01T17:03:57;12.40;99.90
6146;DHT22;3104;50.348;7.620;2023-04-01T17:06:37;12.30;99.90
6146;DHT22;3104;50.348;7.620;2023-04-01T17:11:56;12.20;99.90
6146;DHT22;3104;50.348;7.620;2023-04-01T17:14:45;12.20;99.90
6146;DHT22;3104;50.348;7.620;2023-04-01T17:17:34;12.20;99.90
6146;DHT22;3104;50.348;7.620;2023-04-01T17:20:12;12.20;99.90
6146;DHT22;3104;50.348;7.620;2023-04-01T17:25:57;12.10;99.90
6146;DHT22;3104;50.348;7.620;2023-04-01T17:37:09;12.00;99.90
6146;DHT22;3104;50.348;7.620;2023-04-01T17:42:38;12.10;99.90
6146;DHT22;3104;50.348;7.620;2023-04-01T18:01:22;12.00;99.90
6146;DHT22;3104;50.348;7.620;2023-04-01T18:07:02;11.90;99.90
6146;DHT22;3104;50.348;7.620;2023-04-01T18:09:55;11.80;99.90
6146;DHT22;3104;50.348;7.620;2023-04-01T18:18:35;11.80;99.90
6146;DHT22;3104;50.348;7.620;2023-04-01T18:23:46;11.20;99.90
6146;DHT22;3104;50.348;7.620;2023-04-01T18:26:34;11.10;99.90
6146;DHT22;3104;50.348;7.620;2023-04-01T18:34:57;11.20;99.90
6146;DHT22;3104;50.348;7.620;2023-04-01T18:37:42;11.20;99.90
6146;DHT22;3104;50.348;7.620;2023-04-01T18:40:34;11.20;99.90
6146;DHT22;3104;50.348;7.620;2023-04-01T18:46:25;11.00;99.90
6146;DHT22;3104;50.348;7.620;2023-04-01T18:49:11;11.00;99.90
6146;DHT22;3104;50.348;7.620;2023-04-01T18:51:46;10.80;99.90
6146;DHT22;3104;50.348;7.620;2023-04-01T18:54:33;10.90;99.90
6146;DHT22;3104;50.348;7.620;2023-04-01T18:57:23;10.90;99.90
6146;DHT22;3104;50.348;7.620;2023-04-01T18:59:57;11.00;99.90
6146;DHT22;3104;50.348;7.620;2023-04-01T19:02:48;10.90;99.90
6146;DHT22;3104;50.348;7.620;2023-04-01T19:05:25;11.00;99.90
6146;DHT22;3104;50.348;7.620;2023-04-01T19:07:54;10.90;99.90
6146;DHT22;3104;50.348;7.620;2023-04-01T19:10:40;10.80;99.90
6146;DHT22;3104;50.348;7.620;2023-04-01T19:29:49;11.10;99.90
6146;DHT22;3104;50.348;7.620;2023-04-01T19:35:52;10.90;99.90
6146;DHT22;3104;50.348;7.620;2023-04-01T19:38:39;10.90;99.90
6146;DHT22;3104;50.348;7.620;2023-04-01T19:49:46;10.80;99.90
6146;DHT22;3104;50.348;7.620;2023-04-01T19:58:26;11.00;99.90
6146;DHT22;3104;50.348;7.620;2023-04-01T20:00:58;11.30;99.90
6146;DHT22;3104;50.348;7.620;2023-04-01T20:03:50;11.20;99.90
6146;DHT22;3104;50.348;7.620;2023-04-01T20:06:47;11.10;99.90
6146;DHT22;3104;50.348;7.620;2023-04-01T20:17:48;11.00;99.90
6146;DHT22;3104;50.348;7.620;2023-04-01T20:20:19;10.90;99.90
6146;DHT22;3104;50.348;7.620;2023-04-01T20:27:51;11.20;99.90
6146;DHT22;3104;50.348;7.620;2023-04-01T20:44:09;11.00;99.90
6146;DHT22;3104;50.348;7.620;2023-04-01T20:47:01;10.90;99.90
6146;DHT22;3104;50.348;7.620;2023-04-01T20:49:49;10.90;99.90
6146;DHT22;3104;50.348;7.620;2023-04-01T20:52:49;11.00;99.90
6146;DHT22;3104;50.348;7.620;2023-04-01T21:11:59;11.10;99.90
6146;DHT22;3104;50.348;7.620;2023-04-01T21:23:14;11.20;99.90
6146;DHT22;3104;50.348;7.620;2023-04-01T21:25:50;11.10;99.90
6146;DHT22;3104;50.348;7.620;2023-04-01T21:28:54;10.90;99.90
6146;DHT22;3104;50.348;7.620;2023-04-01T21:31:33;10.90;99.90
6146;DHT22;3104;50.348;7.620;2023-04-01T21:34:31;10.90;99.90
6146;DHT22;3104;50.348;7.620;2023-04-01T21:45:19;10.80;99.90
6146;DHT22;3104;50.348;7.620;2023-04-01T21:50:43;10.80;99.90
6146;DHT22;3104;50.348;7.620;2023-04-01T21:59:18;10.70;99.90
6146;DHT22;3104;50.348;7.620;2023-04-01T22:02:08;10.70;99.90
6146;DHT22;3104;50.348;7.620;2023-04-01T22:05:04;10.70;99.90
6146;DHT22;3104;50.348;7.620;2023-04-01T22:07:47;10.70;99.90
6146;DHT22;3104;50.348;7.620;2023-04-01T22:13:46;10.70;99.90
6146;DHT22;3104;50.348;7.620;2023-04-01T22:16:10;10.70;99.90
6146;DHT22;3104;50.348;7.620;2023-04-01T22:18:51;10.70;99.90
6146;DHT22;3104;50.348;7.620;2023-04-01T22:21:36;10.60;99.90
6146;DHT22;3104;50.348;7.620;2023-04-01T22:24:20;10.60;99.90
6146;DHT22;3104;50.348;7.620;2023-04-01T22:26:59;10.50;99.90
6146;DHT22;3104;50.348;7.620;2023-04-01T22:29:58;10.60;99.90
6146;DHT22;3104;50.348;7.620;2023-04-01T22:43:13;10.60;99.90
6146;DHT22;3104;50.348;7.620;2023-04-01T22:46:06;10.60;99.90
6146;DHT22;3104;50.348;7.620;2023-04-01T22:48:43;10.50;99.90
6146;DHT22;3104;50.348;7.620;2023-04-01T22:59:48;10.50;99.90
6146;DHT22;3104;50.348;7.620;2023-04-01T23:02:29;10.60;99.90
6146;DHT22;3104;50.348;7.620;2023-04-01T23:04:58;10.50;99.90
6146;DHT22;3104;50.348;7.620;2023-04-01T23:07:45;10.60;99.90
6146;DHT22;3104;50.348;7.620;2023-04-01T23:13:06;10.70;99.90
6146;DHT22;3104;50.348;7.620;2023-04-01T23:15:36;10.70;99.90
6146;DHT22;3104;50.348;7.620;2023-04-01T23:21:01;10.40;99.90
6146;DHT22;3104;50.348;7.620;2023-04-01T23:24:03;10.50;99.90
6146;DHT22;3104;50.348;7.620;2023-04-01T23:28:57;10.40;99.90
6146;DHT22;3104;50.348;7.620;2023-04-01T23:36:31;10.30;99.90
6146;DHT22;3104;50.348;7.620;2023-04-01T23:39:06;10.50;99.90
6146;DHT22;3104;50.348;7.620;2023-04-01T23:41:37;10.40;99.90
6146;DHT22;3104;50.348;7.620;2023-04-01T23:44:09;10.40;99.90
6146;DHT22;3104;50.348;7.620;2023-04-01T23:46:37;10.30;99.90
6146;DHT22;3104;50.348;7.620;2023-04-01T23:49:10;10.40;99.90
6146;DHT22;3104;50.348;7.620;2023-04-01T23:51:46;10.50;99.90
6146;DHT22;3104;50.348;7.620;2023-04-01T23:54:17;10.40;99.90
6146;DHT22;3104;50.348;7.620;2023-04-01T23:56:47;10.00;99.90
6146;DHT22;3104;50.348;7.620;2023-04-01T23:59:38;9.90;99.90
